METAR Data
IDs: Format: Raw Decoded Include TAF

Data at: 2048 UTC 18 Apr 2021

LIBR 182020Z 16004KT 9999 VCTS FEW020CB SCT040 13/06 Q1015